Latest Weather Observations for Maroochydore

IDQ60901

Issued at 10:15 am EST Wednesday 22 October 2014 (issued every 10 minutes, with the page automatically refreshed every 10 minutes)

About weather observations | Map of Brisbane area stations | Latest observations for Brisbane area | Other Formats
Station Details ID: 040861 Name: SUNSHINE COAST AIRPORT Lat: -26.60 Lon: 153.09 Height: 3.3 m
Data from the previous 72 hours. | See also: Recent months at Maroochydore
Date/Time
EST
Tmp

°C
App
Tmp
°C
Dew
Point
°C
Rel
Hum
%
Delta-T

°C
Wind Press
QNH
hPa
Press
MSL
hPa
Rain
since
9 am
mm
Dir
 
Spd
km/h
Gust
km/h
Spd
kts
Gust
kts
22/10:00am 21.1 17.4 12.8 59 4.7 SSE 24 32 13 17 1025.1 - 0.0
22/09:30am 22.2 18.5 12.7 55 5.4 ESE 24 32 13 17 1025.2 - 0.0
22/09:00am 21.8 19.4 14.4 63 4.3 SSE 20 28 11 15 1025.2 1025.2 9.0
22/08:30am 21.3 19.6 16.3 73 3.0 S 20 28 11 15 1025.3 - 9.0
22/08:00am 19.5 17.2 14.7 74 2.8 S 20 30 11 16 1025.3 - 9.0
22/07:30am 18.1 16.4 14.6 80 2.0 S 17 22 9 12 1025.0 - 9.0
22/07:00am 17.4 15.2 14.5 83 1.7 SSW 19 26 10 14 1024.8 - 9.0
22/06:30am 16.7 14.5 14.3 86 1.4 S 19 28 10 15 1024.6 - 9.0
22/06:00am 16.5 14.9 14.9 90 0.9 S 17 20 9 11 1024.4 1024.4 9.0
22/05:30am 16.2 14.5 14.6 90 0.9 SSW 17 24 9 13 1024.2 - 9.0
22/05:00am 16.2 14.5 14.7 91 0.9 SSW 17 24 9 13 1024.0 - 9.0
22/04:58am 16.1 14.7 14.6 91 0.9 SSW 15 24 8 13 1024.0 - 9.0
22/04:45am 16.2 14.1 14.7 91 0.9 S 19 26 10 14 1023.8 - 9.0
22/04:30am 16.1 14.8 14.8 92 0.7 SSW 15 20 8 11 1023.7 - 8.8
22/04:00am 16.4 14.8 15.1 92 0.8 SSW 17 24 9 13 1023.8 - 8.8
22/03:30am 16.7 16.8 15.4 92 0.8 S 9 22 5 12 1023.8 - 8.8
22/03:26am 16.6 17.1 15.5 93 0.6 SSE 7 9 4 5 1023.9 - 8.8
22/03:15am 16.6 15.2 15.5 93 0.6 S 17 28 9 15 1023.9 - 8.6
22/03:08am 16.5 14.5 15.4 93 0.6 S 20 30 11 16 1024.1 - 8.6
22/03:00am 16.5 14.7 15.4 93 0.6 S 19 24 10 13 1024.1 1024.1 8.6
22/02:58am 16.6 14.8 15.5 93 0.6 S 19 24 10 13 1024.2 - 8.4
22/02:30am 16.6 15.1 15.3 92 0.8 SSW 17 24 9 13 1024.3 - 7.4
22/02:00am 16.8 15.3 15.3 91 0.9 SSW 17 24 9 13 1024.6 - 7.0
22/01:30am 17.0 16.4 15.7 92 0.8 SSW 13 20 7 11 1024.8 - 7.0
22/01:21am 17.0 16.3 15.5 91 0.9 S 13 20 7 11 1024.9 - 7.0
22/01:07am 17.1 15.1 15.4 90 1.0 SSE 20 28 11 15 1025.2 - 7.0
22/01:00am 17.3 15.9 15.5 89 1.1 S 17 20 9 11 1025.2 - 6.2
22/12:30am 17.9 16.6 15.9 88 1.2 SSW 17 24 9 13 1025.5 - 5.8
22/12:00am 18.2 15.9 15.8 86 1.4 SSE 22 41 12 22 1025.9 1025.9 5.6
 
Date/Time
EST
Tmp

°C
App
Tmp
°C
Dew
Point
°C
Rel
Hum
%
Delta-T

°C
Wind Press
QNH
hPa
Press
MSL
hPa
Rain
since
9 am
mm
Dir
 
Spd
km/h
Gust
km/h
Spd
kts
Gust
kts
21/11:30pm 18.7 16.7 15.6 82 1.8 S 20 30 11 16 1026.0 - 5.4
21/11:00pm 18.8 16.1 15.5 81 1.9 S 24 32 13 17 1026.4 - 5.4
21/10:30pm 19.5 17.2 15.6 78 2.3 S 22 30 12 16 1026.6 - 4.8
21/10:00pm 19.3 15.8 15.6 79 2.2 SE 28 35 15 19 1026.8 - 4.8
21/09:36pm 19.4 15.3 15.9 80 2.1 S 32 50 17 27 1026.8 - 4.8
21/09:30pm 19.5 16.0 15.4 77 2.4 S 28 33 15 18 1026.8 - 4.8
21/09:11pm 19.5 16.1 15.8 79 2.2 SE 28 39 15 21 1026.7 - 4.8
21/09:00pm 19.4 16.2 16.4 83 1.8 SE 28 43 15 23 1026.6 1026.6 4.8
21/08:55pm 19.1 15.8 16.1 83 1.8 SE 28 37 15 20 1026.7 - 4.8
21/08:30pm 19.8 15.8 15.2 75 2.7 SE 30 43 16 23 1026.5 - 4.2
21/08:00pm 19.6 15.9 16.1 80 2.1 SE 30 41 16 22 1026.4 - 4.2
21/07:30pm 19.6 15.9 16.1 80 2.1 SE 30 43 16 23 1026.2 - 4.2
21/07:00pm 20.0 16.7 16.0 78 2.4 SE 28 43 15 23 1025.9 - 4.0
21/06:34pm 19.7 15.3 16.7 83 1.8 SE 35 50 19 27 1025.7 - 4.0
21/06:30pm 19.6 15.2 16.6 83 1.8 SSE 35 50 19 27 1025.7 - 4.0
21/06:22pm 19.3 15.8 17.4 89 1.2 ESE 32 44 17 24 1025.7 - 4.0
21/06:18pm 19.3 15.8 17.4 89 1.2 SE 32 44 17 24 1025.6 - 3.8
21/06:01pm 19.0 16.1 17.1 89 1.2 SSE 28 41 15 22 1025.5 - 1.2
21/06:00pm 19.1 16.3 17.2 89 1.1 SSE 28 41 15 22 1025.5 1025.5 1.0
21/05:55pm 19.3 15.4 16.5 84 1.7 SE 32 46 17 25 1025.5 - 0.8
21/05:30pm 20.9 16.7 16.3 75 2.8 ESE 33 44 18 24 1025.1 - 0.2
21/05:00pm 21.3 17.5 16.7 75 2.8 SE 32 44 17 24 1024.9 - 0.2
21/04:30pm 21.3 16.8 16.3 73 3.0 SE 35 48 19 26 1024.6 - 0.2
21/04:00pm 21.8 18.0 16.7 73 3.1 SE 32 44 17 24 1024.4 - 0.2
21/03:30pm 22.5 18.6 17.0 71 3.4 SE 33 43 18 23 1024.1 - 0.2
21/03:00pm 24.1 21.3 17.4 66 4.1 SE 28 39 15 21 1024.1 1024.1 0.2
21/02:30pm 23.6 19.8 16.6 65 4.3 SSE 32 43 17 23 1024.1 - 0.2
21/02:00pm 22.5 20.1 17.4 73 3.1 SE 26 33 14 18 1024.4 - 0.2
21/01:30pm 21.8 21.1 19.4 86 1.5 SE 22 30 12 16 1024.8 - 0.2
21/01:00pm 21.6 20.5 17.8 79 2.4 ESE 20 30 11 16 1025.2 - 0.0
21/12:30pm 21.9 19.0 16.2 70 3.4 SE 26 32 14 17 1025.5 - 0.0
21/12:00pm 22.5 21.2 17.2 72 3.2 ESE 20 24 11 13 1025.8 1025.8 0.0
21/11:30am 22.8 21.7 17.7 73 3.2 SSE 20 28 11 15 1026.2 - 0.0
21/11:00am 21.1 19.9 17.1 78 2.4 SE 19 26 10 14 1026.5 - 0.0
21/10:30am 21.3 19.8 16.7 75 2.8 SSE 20 28 11 15 1026.8 - 0.0
21/10:00am 20.9 18.7 16.9 78 2.4 SSE 24 39 13 21 1026.9 - 0.0
21/09:53am 22.2 20.1 17.1 73 3.1 SSE 24 35 13 19 1026.8 - 0.0
21/09:40am 21.5 20.3 17.5 78 2.5 SE 20 35 11 19 1026.8 - 0.0
21/09:30am 20.0 18.1 16.6 81 2.1 SSE 22 28 12 15 1026.9 - 0.0
21/09:00am 21.5 20.2 16.9 75 2.8 SSE 19 24 10 13 1026.9 1026.9 0.0
21/08:30am 21.6 21.1 17.0 75 2.8 S 15 20 8 11 1026.8 - 0.0
21/08:00am 20.3 19.8 16.9 81 2.1 SSW 15 19 8 10 1026.8 - 0.0
21/07:30am 19.6 17.1 14.2 71 3.1 SSW 20 28 11 15 1026.4 - 0.0
21/07:00am 21.2 19.1 14.8 67 3.8 ESE 19 24 10 13 1026.0 - 0.0
21/06:30am 21.2 18.9 14.1 64 4.1 ESE 19 24 10 13 1025.6 - 0.0
21/06:00am 21.2 19.2 13.9 63 4.2 ESE 17 24 9 13 1025.3 1025.3 0.0
21/05:30am 20.5 18.1 13.7 65 3.9 SE 19 24 10 13 1025.1 - 0.0
21/05:00am 20.2 17.7 13.6 66 3.8 ESE 19 26 10 14 1024.7 - 0.0
21/04:30am 20.1 17.4 13.6 66 3.7 SE 20 28 11 15 1024.4 - 0.0
21/04:00am 20.2 17.5 13.4 65 3.9 ESE 20 28 11 15 1024.4 - 0.0
21/03:30am 20.3 17.2 13.3 64 4.0 ESE 22 30 12 16 1024.5 - 0.0
21/03:00am 20.3 17.6 13.5 65 3.9 ESE 20 28 11 15 1024.8 1024.8 0.0
21/02:30am 20.2 17.5 12.9 63 4.1 ESE 19 32 10 17 1024.8 - 0.0
21/02:00am 20.4 17.4 12.6 61 4.4 ESE 20 26 11 14 1025.0 - 0.0
21/01:30am 20.5 17.5 12.5 60 4.5 ESE 20 30 11 16 1025.2 - 0.0
21/01:00am 20.4 17.0 12.6 61 4.4 ESE 22 33 12 18 1025.6 - 0.0
21/12:30am 20.4 17.7 13.4 64 4.0 SE 20 30 11 16 1025.8 - 0.0
21/12:00am 20.5 16.9 13.2 63 4.1 ESE 24 30 13 16 1026.1 1026.1 0.0
 
Date/Time
EST
Tmp

°C
App
Tmp
°C
Dew
Point
°C
Rel
Hum
%
Delta-T

°C
Wind Press
QNH
hPa
Press
MSL
hPa
Rain
since
9 am
mm
Dir
 
Spd
km/h
Gust
km/h
Spd
kts
Gust
kts
20/11:30pm 20.8 17.4 13.7 64 4.1 ESE 24 32 13 17 1026.3 - 0.0
20/11:00pm 20.7 17.8 13.9 65 3.9 ESE 22 30 12 16 1026.4 - 0.0
20/10:30pm 20.7 17.4 13.9 65 3.9 ESE 24 32 13 17 1026.5 - 0.0
20/10:00pm 20.8 18.3 14.2 66 3.8 ESE 20 28 11 15 1026.5 - 0.0
20/09:30pm 20.5 18.0 14.2 67 3.7 ESE 20 28 11 15 1026.2 - 0.0
20/09:00pm 20.6 18.3 14.0 66 3.8 ESE 19 26 10 14 1026.0 1026.0 0.0
20/08:30pm 20.7 18.8 14.1 66 3.8 ESE 17 22 9 12 1025.7 - 0.0
20/08:00pm 20.6 18.7 14.3 67 3.7 ESE 17 22 9 12 1025.2 - 0.0
20/07:30pm 20.7 18.6 13.6 64 4.1 ESE 17 22 9 12 1024.7 - 0.0
20/07:00pm 20.6 18.8 13.3 63 4.2 ESE 15 20 8 11 1024.3 - 0.0
20/06:30pm 20.3 19.3 13.3 64 4.0 E 11 15 6 8 1023.9 - 0.0
20/06:00pm 20.4 19.4 13.4 64 4.0 E 11 17 6 9 1023.4 1023.4 0.0
20/05:30pm 21.0 19.5 13.2 61 4.5 E 13 19 7 10 1022.9 - 0.0
20/05:00pm 21.9 20.0 13.0 57 5.1 E 15 20 8 11 1022.7 - 0.0
20/04:30pm 22.4 20.6 13.2 56 5.3 ENE 15 17 8 9 1022.4 - 0.0
20/04:00pm 22.7 20.5 13.2 55 5.5 E 17 20 9 11 1022.3 - 0.0
20/03:30pm 23.3 21.1 13.2 53 5.8 ENE 17 22 9 12 1022.2 - 0.0
20/03:00pm 23.5 21.3 13.4 53 5.8 ENE 17 20 9 11 1022.1 1022.1 0.0
20/02:30pm 23.7 21.3 12.7 50 6.3 ENE 17 20 9 11 1022.4 - 0.0
20/02:00pm 24.4 22.3 13.6 51 6.3 ENE 17 22 9 12 1022.5 - 0.0
20/01:30pm 24.2 22.1 13.7 52 6.1 ENE 17 20 9 11 1022.9 - 0.0
20/01:00pm 23.4 21.3 13.6 54 5.7 E 17 20 9 11 1023.1 - 0.0
20/12:30pm 23.7 22.0 13.6 53 5.9 E 15 20 8 11 1023.5 - 0.0
20/12:00pm 23.9 22.1 13.4 51 6.1 E 15 20 8 11 1024.0 1024.0 0.0
20/11:30am 24.0 22.5 13.2 50 6.3 E 13 19 7 10 1024.5 - 0.0
20/11:00am 23.7 22.7 13.3 52 6.0 E 11 17 6 9 1024.9 - 0.0
20/10:30am 22.8 21.0 12.1 51 6.1 ESE 13 20 7 11 1025.2 - 0.0
20/10:00am 22.6 21.6 12.3 52 5.8 E 9 15 5 8 1025.6 - 0.0
20/09:30am 22.7 21.8 12.6 53 5.8 E 9 17 5 9 1025.8 - 0.0
20/09:00am 22.6 21.1 12.0 51 5.9 ESE 11 19 6 10 1026.0 1026.0 0.0
20/08:30am 22.3 20.9 12.3 53 5.7 ESE 11 17 6 9 1025.9 - 0.0
20/08:00am 21.8 20.4 12.1 54 5.5 SE 11 15 6 8 1025.8 - 0.0
20/07:30am 21.3 20.7 13.5 61 4.5 S 9 15 5 8 1025.6 - 0.0
20/07:00am 18.9 18.9 14.2 74 2.7 SSW 7 11 4 6 1025.4 - 0.0
20/06:30am 16.4 16.2 13.5 83 1.6 WSW 7 9 4 5 1025.2 - 0.0
20/06:00am 14.2 13.8 12.9 92 0.7 WSW 7 9 4 5 1024.8 1024.8 0.0
20/05:30am 13.0 12.2 11.7 92 0.7 WSW 7 9 4 5 1024.6 - 0.0
20/05:00am 13.1 12.4 11.5 90 0.8 WSW 6 7 3 4 1024.4 - 0.0
20/04:30am 13.5 13.0 11.9 90 0.9 SW 6 7 3 4 1024.2 - 0.0
20/04:00am 13.8 13.2 12.2 90 0.9 SW 7 11 4 6 1024.1 - 0.0
20/03:30am 13.8 12.6 11.7 87 1.1 SW 9 11 5 6 1024.0 - 0.0
20/03:00am 14.8 14.4 12.5 86 1.3 WSW 6 7 3 4 1024.1 1024.1 0.0
20/02:30am 15.5 14.3 12.8 84 1.5 SW 11 15 6 8 1024.2 - 0.0
20/02:00am 16.3 15.8 12.5 78 2.1 SW 7 13 4 7 1024.3 - 0.0
20/01:30am 17.2 16.5 12.1 72 2.8 S 7 9 4 5 1024.6 - 0.0
20/01:00am 18.9 17.3 11.7 63 4.0 ESE 11 15 6 8 1024.9 - 0.0
20/12:30am 19.1 17.5 11.4 61 4.2 ESE 11 17 6 9 1025.4 - 0.0
20/12:00am 19.7 17.9 12.0 61 4.3 E 13 19 7 10 1025.6 1025.6 0.0
 
Date/Time
EST
Tmp

°C
App
Tmp
°C
Dew
Point
°C
Rel
Hum
%
Delta-T

°C
Wind Press
QNH
hPa
Press
MSL
hPa
Rain
since
9 am
mm
Dir
 
Spd
km/h
Gust
km/h
Spd
kts
Gust
kts
19/11:30pm 19.8 17.2 12.1 61 4.3 E 17 24 9 13 1025.8 - 0.0
19/11:00pm 19.9 17.2 11.7 59 4.5 E 17 20 9 11 1026.0 - 0.0
19/10:30pm 20.1 17.1 12.1 60 4.5 E 19 24 10 13 1026.2 - 0.0
19/10:00pm 20.3 17.3 12.0 59 4.6 E 19 24 10 13 1026.3 - 0.0
19/09:30pm 20.4 17.6 12.6 61 4.4 E 19 26 10 14 1026.2 - 0.0
19/09:00pm 20.3 17.9 12.5 61 4.4 E 17 26 9 14 1026.1 1026.1 0.0
19/08:30pm 20.3 17.4 12.3 60 4.5 E 19 26 10 14 1026.2 - 0.0
19/08:00pm 20.5 17.6 12.2 59 4.6 ESE 19 24 10 13 1025.8 - 0.0
19/07:30pm 20.6 17.9 12.8 61 4.4 ESE 19 26 10 14 1025.7 - 0.0
19/07:00pm 20.4 17.7 12.9 62 4.3 ESE 19 24 10 13 1025.4 - 0.0
19/06:30pm 20.7 18.2 13.6 64 4.1 ESE 19 26 10 14 1025.0 - 0.0
19/06:00pm 20.4 17.5 12.4 60 4.5 ESE 19 26 10 14 1024.6 1024.6 0.0
19/05:30pm 20.8 17.8 12.5 59 4.7 SE 20 26 11 14 1024.3 - 0.0
19/05:00pm 21.4 18.0 12.5 57 5.0 ESE 22 28 12 15 1024.0 - 0.0
19/04:30pm 22.0 18.7 12.8 56 5.2 ESE 22 28 12 15 1023.7 - 0.0
19/04:00pm 22.4 19.6 13.2 56 5.3 ESE 20 26 11 14 1023.6 - 0.0
19/03:30pm 22.9 20.1 14.2 58 5.1 ESE 22 30 12 16 1023.7 - 0.0
19/03:00pm 22.9 19.6 13.9 57 5.2 ESE 24 30 13 16 1023.7 1023.7 0.0
19/02:30pm 23.8 21.0 14.2 55 5.7 ESE 22 30 12 16 1024.1 - 0.0
19/02:00pm 23.8 20.2 13.1 51 6.2 ESE 24 30 13 16 1024.3 - 0.0
19/01:30pm 23.6 20.0 12.0 48 6.6 ESE 22 30 12 16 1024.7 - 0.0
19/01:00pm 24.1 20.3 12.4 48 6.7 SE 24 30 13 16 1025.0 - 0.0
19/12:30pm 24.2 21.0 13.1 50 6.4 SE 22 30 12 16 1025.4 - 0.0
19/12:00pm 23.8 20.3 13.4 52 6.0 ESE 24 32 13 17 1025.8 1025.8 0.0
19/11:30am 23.6 20.1 12.3 49 6.4 ESE 22 28 12 15 1026.1 - 0.0
19/11:00am 23.7 20.1 12.0 48 6.6 ESE 22 30 12 16 1026.4 - 0.0
19/10:30am 23.7 20.4 12.7 50 6.3 ESE 22 30 12 16 1026.8 - 0.0

Latest Capital City Observations: Canberra | Sydney | Melbourne | Brisbane | Adelaide | Perth | Hobart | Darwin

Other Formats:

Comma delimited format used in spreadsheet applications
http://www.bom.gov.au/fwo/IDQ60901/IDQ60901.94569.axf

JavaScript Object Notation format (JSON) in row-major order
http://www.bom.gov.au/fwo/IDQ60901/IDQ60901.94569.json